createdAt,value
2022-12-08T00:02:22.267Z,7.33
2022-12-08T00:05:08.453Z,7.70
2022-12-08T00:07:57.660Z,7.60
2022-12-08T00:10:48.492Z,7.13
2022-12-08T00:13:14.931Z,6.87
2022-12-08T00:15:43.586Z,6.90
2022-12-08T00:18:12.216Z,6.23
2022-12-08T00:20:40.974Z,6.83
2022-12-08T00:23:10.928Z,6.50
2022-12-08T00:25:39.498Z,6.73
2022-12-08T00:28:08.105Z,6.43
2022-12-08T00:30:36.647Z,7.37
2022-12-08T00:33:05.318Z,7.50
2022-12-08T00:35:36.519Z,8.20
2022-12-08T00:38:07.352Z,7.57
2022-12-08T00:40:37.433Z,7.83
2022-12-08T00:43:06.295Z,7.07
2022-12-08T00:45:34.985Z,8.00
2022-12-08T00:48:03.594Z,8.07
2022-12-08T00:50:32.289Z,8.00
2022-12-08T00:53:00.931Z,8.13
2022-12-08T00:55:29.596Z,7.67
2022-12-08T00:57:59.720Z,8.53
2022-12-08T01:00:28.419Z,7.90
2022-12-08T01:02:57.085Z,7.40
2022-12-08T01:05:25.844Z,7.70
2022-12-08T01:07:54.480Z,8.17
2022-12-08T01:10:23.160Z,8.30
2022-12-08T01:12:51.827Z,8.17
2022-12-08T01:15:21.958Z,8.00
2022-12-08T01:17:50.584Z,7.43
2022-12-08T01:20:19.217Z,7.87
2022-12-08T01:22:47.808Z,8.07
2022-12-08T01:25:16.435Z,8.57
2022-12-08T01:27:45.046Z,7.83
2022-12-08T01:30:15.190Z,7.40
2022-12-08T01:32:45.163Z,7.93
2022-12-08T01:35:14.128Z,8.03
2022-12-08T01:37:42.779Z,7.27
2022-12-08T01:40:12.072Z,7.20
2022-12-08T01:42:40.785Z,7.40
2022-12-08T01:45:16.325Z,7.73
2022-12-08T01:47:53.387Z,7.80
2022-12-08T01:50:23.819Z,7.30
2022-12-08T01:52:58.248Z,7.70
2022-12-08T01:55:32.407Z,7.10
2022-12-08T01:58:07.392Z,6.80
2022-12-08T02:00:36.007Z,6.53
2022-12-08T02:03:13.203Z,6.70
2022-12-08T02:05:43.102Z,6.00
2022-12-08T02:08:14.648Z,7.20
2022-12-08T02:10:44.654Z,8.23
2022-12-08T02:13:17.997Z,9.13
2022-12-08T02:16:00.670Z,8.67
2022-12-08T02:19:22.155Z,8.23
2022-12-08T02:21:55.266Z,7.87
2022-12-08T02:24:36.088Z,7.17
2022-12-08T02:27:33.874Z,7.20
2022-12-08T02:30:23.148Z,8.60
2022-12-08T02:33:59.065Z,7.40
2022-12-08T02:36:42.587Z,8.20
2022-12-08T02:39:24.583Z,7.17
2022-12-08T02:42:03.527Z,6.93
2022-12-08T02:44:38.629Z,8.33
2022-12-08T02:47:13.138Z,6.95
2022-12-08T02:49:41.883Z,6.43
2022-12-08T02:52:45.108Z,8.43
2022-12-08T02:55:27.693Z,8.70
2022-12-08T02:58:43.866Z,8.57
2022-12-08T03:01:36.422Z,8.77
2022-12-08T03:04:11.303Z,8.90
2022-12-08T03:06:51.096Z,9.00
2022-12-08T03:09:35.364Z,9.10
2022-12-08T03:12:15.641Z,8.20
2022-12-08T03:14:51.511Z,9.30
2022-12-08T03:17:24.419Z,9.50
2022-12-08T03:19:55.700Z,9.87
2022-12-08T03:22:28.570Z,8.27
2022-12-08T03:24:59.389Z,7.70
2022-12-08T03:27:32.566Z,7.87
2022-12-08T03:30:03.475Z,8.03
2022-12-08T03:32:39.942Z,8.07
2022-12-08T03:35:15.688Z,8.30
2022-12-08T03:37:45.668Z,7.27
2022-12-08T03:40:19.378Z,7.27
2022-12-08T03:42:48.020Z,8.57
2022-12-08T03:45:16.626Z,7.57
2022-12-08T03:47:45.267Z,8.47
2022-12-08T03:50:14.035Z,8.23
2022-12-08T03:52:42.646Z,7.93
2022-12-08T03:55:11.533Z,7.80
2022-12-08T03:57:41.490Z,7.80
2022-12-08T04:00:16.919Z,8.20
2022-12-08T04:02:45.690Z,7.80
2022-12-08T04:05:14.533Z,7.80
2022-12-08T04:07:43.799Z,7.50
2022-12-08T04:10:12.990Z,7.60
2022-12-08T04:12:43.062Z,8.00
2022-12-08T04:15:12.926Z,7.93
2022-12-08T04:17:41.525Z,8.17
2022-12-08T04:20:11.162Z,8.07
2022-12-08T04:22:39.753Z,8.00
2022-12-08T04:25:09.768Z,8.73
2022-12-08T04:27:38.436Z,7.73
2022-12-08T04:30:11.209Z,7.93
2022-12-08T04:32:42.944Z,8.10
2022-12-08T04:35:16.147Z,8.03
2022-12-08T04:37:45.329Z,8.47
2022-12-08T04:40:15.782Z,8.77
2022-12-08T04:42:44.350Z,9.93
2022-12-08T04:45:14.814Z,9.03
2022-12-08T04:47:43.470Z,9.53
2022-12-08T04:50:13.250Z,9.43
2022-12-08T04:52:41.950Z,9.30
2022-12-08T04:55:11.370Z,9.40
2022-12-08T04:57:40.029Z,10.27
2022-12-08T05:00:10.329Z,9.30
2022-12-08T05:02:40.521Z,11.10
2022-12-08T05:05:10.147Z,10.20
2022-12-08T05:07:38.994Z,9.57
2022-12-08T05:10:09.852Z,10.33
2022-12-08T05:12:38.469Z,10.63
2022-12-08T05:15:08.842Z,10.43
2022-12-08T05:17:37.431Z,12.63
2022-12-08T05:20:09.451Z,14.53
2022-12-08T05:22:38.272Z,13.50
2022-12-08T05:25:07.634Z,13.67
2022-12-08T05:27:37.062Z,11.83
2022-12-08T05:30:07.292Z,12.57
2022-12-08T05:32:36.031Z,12.33
2022-12-08T05:35:06.400Z,12.33
2022-12-08T05:37:34.984Z,12.10
2022-12-08T05:40:04.223Z,11.97
2022-12-08T05:42:32.954Z,15.20
2022-12-08T05:45:01.538Z,13.00
2022-12-08T05:47:35.729Z,14.07
2022-12-08T05:50:07.538Z,14.07
2022-12-08T05:52:36.291Z,13.07
2022-12-08T05:55:05.406Z,14.33
2022-12-08T05:57:34.045Z,13.77
2022-12-08T06:00:03.133Z,13.93
2022-12-08T06:02:32.143Z,15.33
2022-12-08T06:05:00.874Z,14.77
2022-12-08T06:07:30.931Z,14.80
2022-12-08T06:09:59.500Z,15.10
2022-12-08T06:12:28.210Z,17.77
2022-12-08T06:14:56.762Z,15.67
2022-12-08T06:17:25.458Z,16.57
2022-12-08T06:19:54.043Z,18.10
2022-12-08T06:22:22.760Z,18.17
2022-12-08T06:24:52.710Z,19.17
2022-12-08T06:27:21.475Z,20.07
2022-12-08T06:29:50.134Z,21.20
2022-12-08T06:32:20.810Z,19.53
2022-12-08T06:34:52.995Z,17.63
2022-12-08T06:37:21.546Z,17.37
2022-12-08T06:39:51.958Z,18.67
2022-12-08T06:42:37.897Z,17.70
2022-12-08T06:45:08.089Z,17.83
2022-12-08T06:47:36.845Z,19.03
2022-12-08T06:50:07.129Z,19.17
2022-12-08T06:52:43.009Z,19.83
2022-12-08T06:55:42.433Z,18.13
2022-12-08T06:58:06.533Z,20.67
2022-12-08T07:00:35.190Z,18.80
2022-12-08T07:03:03.783Z,19.40
2022-12-08T07:05:32.423Z,20.03
2022-12-08T07:08:01.065Z,21.90
2022-12-08T07:10:31.406Z,21.20
2022-12-08T07:13:00.261Z,20.90
2022-12-08T07:15:28.894Z,21.47
2022-12-08T07:18:00.077Z,21.33
2022-12-08T07:20:29.501Z,21.67
2022-12-08T07:22:58.254Z,20.83
2022-12-08T07:25:27.062Z,21.93
2022-12-08T07:27:57.057Z,21.23
2022-12-08T07:30:25.971Z,21.33
2022-12-08T07:32:54.577Z,20.33
2022-12-08T07:35:23.271Z,21.17
2022-12-08T07:37:52.027Z,22.60
2022-12-08T07:40:20.873Z,22.10
2022-12-08T07:42:49.517Z,22.37
2022-12-08T07:45:19.515Z,21.83
2022-12-08T07:47:48.139Z,21.73
2022-12-08T07:50:16.863Z,21.90
2022-12-08T07:52:45.425Z,21.03
2022-12-08T07:55:14.020Z,20.00
2022-12-08T07:57:42.605Z,21.40
2022-12-08T08:00:13.856Z,22.23
2022-12-08T08:02:44.106Z,23.13
2022-12-08T08:05:13.720Z,21.70
2022-12-08T08:07:44.689Z,23.73
2022-12-08T08:10:14.388Z,21.37
2022-12-08T08:12:42.950Z,23.00
2022-12-08T08:15:12.749Z,22.30
2022-12-08T08:17:41.506Z,22.63
2022-12-08T08:20:13.433Z,22.30
2022-12-08T08:22:41.974Z,22.70
2022-12-08T08:25:10.994Z,23.33
2022-12-08T08:27:39.549Z,22.60
2022-12-08T08:30:15.222Z,23.80
2022-12-08T08:32:47.032Z,24.67
2022-12-08T08:35:17.327Z,24.23
2022-12-08T08:37:49.159Z,23.53
2022-12-08T08:40:18.577Z,22.23
2022-12-08T08:42:47.295Z,23.30
2022-12-08T08:45:16.040Z,22.80
2022-12-08T08:47:44.669Z,22.03
2022-12-08T08:50:13.501Z,22.67
2022-12-08T08:52:43.528Z,22.40
2022-12-08T08:55:12.137Z,23.30
2022-12-08T08:57:40.751Z,23.53
2022-12-08T09:00:11.245Z,23.33
2022-12-08T09:02:40.254Z,23.27
2022-12-08T09:05:10.070Z,26.93
2022-12-08T09:07:38.845Z,24.80
2022-12-08T09:10:11.468Z,27.10
2022-12-08T09:12:40.035Z,21.93
2022-12-08T09:15:09.554Z,23.17
2022-12-08T09:17:38.305Z,24.00
2022-12-08T09:20:08.860Z,23.63
2022-12-08T09:22:37.510Z,24.40
2022-12-08T09:25:07.056Z,24.23
2022-12-08T09:27:37.261Z,27.07
2022-12-08T09:30:07.674Z,26.67
2022-12-08T09:32:36.659Z,24.50
2022-12-08T09:35:05.867Z,27.47
2022-12-08T09:37:35.159Z,23.83
2022-12-08T09:40:03.914Z,25.20
2022-12-08T09:42:45.870Z,25.27
2022-12-08T09:45:18.251Z,27.37
2022-12-08T09:48:00.700Z,24.63
2022-12-08T09:50:37.990Z,24.67
2022-12-08T09:53:15.292Z,26.30
2022-12-08T09:55:50.194Z,25.57
2022-12-08T09:58:30.110Z,26.10
2022-12-08T10:00:58.768Z,28.77
2022-12-08T10:03:31.677Z,27.20
2022-12-08T10:06:12.623Z,26.07
2022-12-08T10:08:52.325Z,24.57
2022-12-08T10:11:30.651Z,25.90
2022-12-08T10:14:16.815Z,24.53
2022-12-08T10:16:53.268Z,27.40
2022-12-08T10:19:26.471Z,24.87
2022-12-08T10:21:57.871Z,25.63
2022-12-08T10:24:38.463Z,27.50
2022-12-08T10:27:12.639Z,27.37
2022-12-08T10:29:43.353Z,28.03
2022-12-08T10:32:19.506Z,25.90
2022-12-08T10:35:04.541Z,23.37
2022-12-08T10:37:33.231Z,23.60
2022-12-08T10:40:07.243Z,21.97
2022-12-08T10:42:41.664Z,22.40
2022-12-08T10:45:27.703Z,21.23
2022-12-08T10:48:05.326Z,22.80
2022-12-08T10:50:37.332Z,22.60
2022-12-08T10:53:16.430Z,20.60
2022-12-08T10:55:50.617Z,20.83
2022-12-08T10:58:31.115Z,20.00
2022-12-08T11:01:07.415Z,19.03
2022-12-08T11:03:44.954Z,18.87
2022-12-08T11:06:20.712Z,18.30
2022-12-08T11:08:54.054Z,18.23
2022-12-08T11:11:37.878Z,19.53
2022-12-08T11:14:09.727Z,19.93
2022-12-08T11:16:44.137Z,19.83
2022-12-08T11:19:19.652Z,19.47
2022-12-08T11:21:48.944Z,18.17
2022-12-08T11:24:28.107Z,18.53
2022-12-08T11:27:03.941Z,17.73
2022-12-08T11:29:36.491Z,19.33
2022-12-08T11:32:13.526Z,18.90
2022-12-08T11:34:47.922Z,18.80
2022-12-08T11:37:26.598Z,18.10
2022-12-08T11:40:05.732Z,18.63
2022-12-08T11:42:47.217Z,18.87
2022-12-08T11:45:27.074Z,19.23
2022-12-08T11:48:07.834Z,18.27
2022-12-08T11:50:46.689Z,17.80
2022-12-08T11:53:27.670Z,18.93
2022-12-08T11:56:01.935Z,19.83
2022-12-08T11:58:42.619Z,19.07
2022-12-08T12:01:21.769Z,18.57
2022-12-08T12:04:02.733Z,18.53
2022-12-08T12:07:26.386Z,17.63
2022-12-08T12:10:14.749Z,19.17
2022-12-08T12:13:00.617Z,18.63
2022-12-08T12:16:13.141Z,18.47
2022-12-08T12:18:46.907Z,19.67
2022-12-08T12:21:23.968Z,19.03
2022-12-08T12:23:58.949Z,19.57
2022-12-08T12:26:30.726Z,19.30
2022-12-08T12:29:06.406Z,18.80
2022-12-08T12:31:42.700Z,18.40
2022-12-08T12:34:25.203Z,18.57
2022-12-08T12:36:59.665Z,18.67
2022-12-08T12:39:32.522Z,19.40
2022-12-08T12:42:03.759Z,18.50
2022-12-08T12:44:44.452Z,20.10
2022-12-08T12:47:56.726Z,19.57
2022-12-08T12:50:45.158Z,19.10
2022-12-08T12:54:16.759Z,19.13
2022-12-08T12:56:54.123Z,19.00
2022-12-08T12:59:50.107Z,18.23
2022-12-08T13:02:28.800Z,18.90
2022-12-08T13:05:09.387Z,19.10
2022-12-08T13:07:46.832Z,19.17
2022-12-08T13:10:22.058Z,18.53
2022-12-08T13:13:17.690Z,19.20
2022-12-08T13:15:53.967Z,18.20
2022-12-08T13:18:27.737Z,18.07
2022-12-08T13:21:04.757Z,18.87
2022-12-08T13:23:49.380Z,17.87
2022-12-08T13:26:22.471Z,18.70
2022-12-08T13:29:25.106Z,18.60
2022-12-08T13:31:55.485Z,17.80
2022-12-08T13:34:36.069Z,18.47
2022-12-08T13:37:26.789Z,19.13
2022-12-08T13:40:02.014Z,18.37
2022-12-08T13:42:38.509Z,18.33
2022-12-08T13:45:48.525Z,17.87
2022-12-08T13:48:36.749Z,18.00
2022-12-08T13:57:10.638Z,17.67
2022-12-08T13:59:46.232Z,17.67
2022-12-08T14:02:26.392Z,18.13
2022-12-08T14:07:49.540Z,18.73
2022-12-08T14:10:23.569Z,19.17
2022-12-08T14:12:59.072Z,18.67
2022-12-08T14:15:34.004Z,19.87
2022-12-08T14:18:05.922Z,18.80
2022-12-08T14:20:58.028Z,20.37
2022-12-08T14:23:28.431Z,18.10
2022-12-08T14:25:58.225Z,20.10
2022-12-08T14:28:27.270Z,19.90
2022-12-08T14:30:57.519Z,19.40
2022-12-08T14:33:28.453Z,20.17
2022-12-08T14:35:58.150Z,18.57
2022-12-08T14:38:27.882Z,18.43
2022-12-08T14:41:06.641Z,18.00
2022-12-08T14:43:36.201Z,18.13
2022-12-08T14:46:21.070Z,18.73
2022-12-08T14:48:51.226Z,18.53
2022-12-08T14:51:30.010Z,17.27
2022-12-08T14:54:02.473Z,16.97
2022-12-08T14:56:39.342Z,17.53
2022-12-08T14:59:15.703Z,20.70
2022-12-08T15:01:45.775Z,19.70
2022-12-08T15:04:21.560Z,19.47
2022-12-08T15:06:58.262Z,19.93
2022-12-08T15:09:36.650Z,18.43
2022-12-08T15:12:16.426Z,17.93
2022-12-08T15:14:57.794Z,19.27
2022-12-08T15:17:36.108Z,24.30
2022-12-08T15:20:30.171Z,21.83
2022-12-08T15:23:04.214Z,19.33
2022-12-08T15:25:35.296Z,18.57
2022-12-08T15:28:04.790Z,18.70
2022-12-08T15:30:34.434Z,17.57
2022-12-08T15:33:03.097Z,17.27
2022-12-08T15:35:40.363Z,17.80
2022-12-08T15:38:20.066Z,17.27
2022-12-08T15:40:48.757Z,16.43
2022-12-08T15:43:17.364Z,17.10
2022-12-08T15:45:58.478Z,17.50
2022-12-08T15:48:31.366Z,17.40
2022-12-08T15:51:01.724Z,16.80
2022-12-08T15:53:30.467Z,19.33
2022-12-08T15:58:56.964Z,24.00
2022-12-08T16:01:26.678Z,18.87
2022-12-08T16:07:20.793Z,21.67
2022-12-08T16:09:42.858Z,17.60
2022-12-08T16:13:26.788Z,17.00
2022-12-08T16:15:50.136Z,16.57
2022-12-08T16:18:23.250Z,16.47
2022-12-08T16:23:45.833Z,21.53
2022-12-08T16:29:10.696Z,17.60
2022-12-08T16:31:43.985Z,16.03
2022-12-08T16:34:12.802Z,16.73
2022-12-08T16:36:41.834Z,17.43
2022-12-08T16:39:28.571Z,17.63
2022-12-08T16:42:16.187Z,16.77
2022-12-08T16:44:45.134Z,17.10
2022-12-08T16:47:14.283Z,18.07
2022-12-08T16:49:42.999Z,18.60
2022-12-08T16:52:12.405Z,18.37
2022-12-08T16:54:42.446Z,16.90
2022-12-08T16:57:12.232Z,18.37
2022-12-08T16:59:40.987Z,18.53
2022-12-08T17:02:16.282Z,17.97
2022-12-08T17:04:45.330Z,17.47
2022-12-08T17:07:14.341Z,18.97
2022-12-08T17:10:39.717Z,18.83
2022-12-08T17:12:45.827Z,18.00
2022-12-08T17:15:18.526Z,23.60
2022-12-08T17:17:49.130Z,20.80
2022-12-08T17:20:21.807Z,19.33
2022-12-08T17:22:51.632Z,19.20
2022-12-08T17:25:21.932Z,19.47
2022-12-08T17:27:50.575Z,19.83
2022-12-08T17:30:19.774Z,19.70
2022-12-08T17:32:49.873Z,19.13
2022-12-08T17:35:19.831Z,19.70
2022-12-08T17:37:48.483Z,19.73
2022-12-08T17:40:17.182Z,20.60
2022-12-08T17:42:47.346Z,19.10
2022-12-08T17:45:16.225Z,20.27
2022-12-08T17:47:44.837Z,20.70
2022-12-08T17:50:13.606Z,18.97
2022-12-08T17:52:42.241Z,20.33
2022-12-08T17:55:11.644Z,20.10
2022-12-08T17:57:40.235Z,21.17
2022-12-08T18:00:15.898Z,20.50
2022-12-08T18:02:44.609Z,19.97
2022-12-08T18:05:13.347Z,20.37
2022-12-08T18:07:42.131Z,24.83
2022-12-08T18:10:11.491Z,28.47
2022-12-08T18:12:40.308Z,22.50
2022-12-08T18:15:17.018Z,19.83
2022-12-08T18:17:46.214Z,21.57
2022-12-08T18:20:15.735Z,22.27
2022-12-08T18:22:45.635Z,19.60
2022-12-08T18:25:15.154Z,20.57
2022-12-08T18:27:49.952Z,20.80
2022-12-08T18:30:20.814Z,17.90
2022-12-08T18:32:54.207Z,19.47
2022-12-08T18:35:27.009Z,19.23
2022-12-08T18:37:55.687Z,19.07
2022-12-08T18:40:24.502Z,20.03
2022-12-08T18:42:53.226Z,19.47
2022-12-08T18:45:23.444Z,19.43
2022-12-08T18:47:53.263Z,20.00
2022-12-08T18:50:28.174Z,21.90
2022-12-08T18:53:14.801Z,23.17
2022-12-08T18:56:16.679Z,24.77
2022-12-08T18:58:45.234Z,19.43
2022-12-08T19:01:17.282Z,25.10
2022-12-08T19:04:05.211Z,23.53
2022-12-08T19:06:34.940Z,21.43
2022-12-08T19:09:04.883Z,22.37
2022-12-08T19:11:33.497Z,19.90
2022-12-08T19:14:02.214Z,20.83
2022-12-08T19:16:32.619Z,21.30
2022-12-08T19:19:01.390Z,20.70
2022-12-08T19:21:29.994Z,26.00
2022-12-08T19:24:00.097Z,22.73
2022-12-08T19:26:29.851Z,21.37
2022-12-08T19:28:59.450Z,20.50
2022-12-08T19:31:28.716Z,19.90
2022-12-08T19:34:01.051Z,21.70
2022-12-08T19:36:35.354Z,19.87
2022-12-08T19:39:23.598Z,19.30
2022-12-08T19:42:09.975Z,20.37
2022-12-08T19:44:54.116Z,18.90
2022-12-08T19:47:25.433Z,19.33
2022-12-08T19:50:16.850Z,19.57
2022-12-08T19:52:48.618Z,20.70
2022-12-08T19:55:20.611Z,20.10
2022-12-08T19:57:49.262Z,21.20
2022-12-08T20:00:19.223Z,20.83
2022-12-08T20:02:48.954Z,21.53
2022-12-08T20:05:18.954Z,28.13
2022-12-08T20:07:47.675Z,31.50
2022-12-08T20:10:22.133Z,22.27
2022-12-08T20:13:15.645Z,22.37
2022-12-08T20:15:45.693Z,22.13
2022-12-08T20:18:16.169Z,21.87
2022-12-08T20:20:48.138Z,22.53
2022-12-08T20:23:18.168Z,22.47
2022-12-08T20:25:47.907Z,22.03
2022-12-08T20:28:16.809Z,20.73
2022-12-08T20:30:49.253Z,21.20
2022-12-08T20:33:20.245Z,21.73
2022-12-08T20:36:00.504Z,20.20
2022-12-08T20:38:30.071Z,21.47
2022-12-08T20:40:59.958Z,19.60
2022-12-08T20:43:28.612Z,21.20
2022-12-08T20:45:57.337Z,26.50
2022-12-08T20:48:26.189Z,21.20
2022-12-08T20:50:56.446Z,20.70
2022-12-08T20:53:25.360Z,21.37
2022-12-08T20:55:54.568Z,21.30
2022-12-08T20:58:23.540Z,22.03
2022-12-08T21:00:52.413Z,21.93
2022-12-08T21:03:21.363Z,21.37
2022-12-08T21:05:51.506Z,21.53
2022-12-08T21:08:25.439Z,21.30
2022-12-08T21:11:01.088Z,21.67
2022-12-08T21:13:29.798Z,20.63
2022-12-08T21:15:58.550Z,20.73
2022-12-08T21:18:27.976Z,21.87
2022-12-08T21:21:03.891Z,22.33
2022-12-08T21:23:35.021Z,22.20
2022-12-08T21:26:04.464Z,22.67
2022-12-08T21:28:33.329Z,21.57
2022-12-08T21:31:02.175Z,21.17
2022-12-08T21:33:31.318Z,22.80
2022-12-08T21:36:05.007Z,24.93
2022-12-08T21:38:35.968Z,22.70
2022-12-08T21:41:06.948Z,23.17
2022-12-08T21:43:36.647Z,22.33
2022-12-08T21:46:06.954Z,22.50
2022-12-08T21:48:35.984Z,24.37
2022-12-08T21:51:06.499Z,23.53
2022-12-08T21:53:36.788Z,22.50
2022-12-08T21:56:10.289Z,24.00
2022-12-08T21:58:39.861Z,23.80
2022-12-08T22:01:09.461Z,23.47
2022-12-08T22:03:40.601Z,24.87
2022-12-08T22:06:12.305Z,23.97
2022-12-08T22:08:43.410Z,22.87
2022-12-08T22:11:13.889Z,23.80
2022-12-08T22:13:43.443Z,23.07
2022-12-08T22:16:14.840Z,23.90
2022-12-08T22:18:43.948Z,23.50
2022-12-08T22:21:15.444Z,22.30
2022-12-08T22:23:46.710Z,23.60
2022-12-08T22:26:15.514Z,22.97
2022-12-08T22:28:45.307Z,23.87
2022-12-08T22:31:17.543Z,22.40
2022-12-08T22:33:46.529Z,23.90
2022-12-08T22:36:18.951Z,24.20
2022-12-08T22:38:49.668Z,23.70
2022-12-08T22:41:19.533Z,23.57
2022-12-08T22:43:50.285Z,23.07
2022-12-08T22:46:22.830Z,23.23
2022-12-08T22:48:53.356Z,22.77
2022-12-08T22:51:22.705Z,23.13
2022-12-08T22:53:53.217Z,22.03
2022-12-08T22:56:22.238Z,22.23
2022-12-08T22:58:51.368Z,22.97
2022-12-08T23:01:26.228Z,22.80
2022-12-08T23:03:55.206Z,23.63
2022-12-08T23:06:24.117Z,22.87
2022-12-08T23:08:55.541Z,23.03
2022-12-08T23:11:29.761Z,22.50
2022-12-08T23:14:01.141Z,22.53
2022-12-08T23:16:30.437Z,22.80
2022-12-08T23:19:00.976Z,23.47
2022-12-08T23:21:29.831Z,21.77
2022-12-08T23:24:02.031Z,22.33
2022-12-08T23:26:33.694Z,23.10
2022-12-08T23:29:02.989Z,22.40
2022-12-08T23:31:32.246Z,22.63
2022-12-08T23:34:01.237Z,23.37
2022-12-08T23:36:30.110Z,23.70
2022-12-08T23:39:00.244Z,23.07
2022-12-08T23:41:29.124Z,23.20
2022-12-08T23:43:58.178Z,22.90
2022-12-08T23:46:27.358Z,22.83
2022-12-08T23:48:56.165Z,24.50
2022-12-08T23:51:24.807Z,24.03
2022-12-08T23:53:53.610Z,23.73
2022-12-08T23:56:29.860Z,23.73
2022-12-08T23:58:58.957Z,24.27
